createdAt,value
2022-09-07T00:00:25.298Z,77
2022-09-07T00:00:47.347Z,77
2022-09-07T00:01:09.764Z,77
2022-09-07T00:01:44.934Z,77
2022-09-07T00:02:16.748Z,77
2022-09-07T00:02:50.627Z,76
2022-09-07T00:03:20.888Z,76
2022-09-07T00:03:52.959Z,76
2022-09-07T00:04:25.841Z,75
2022-09-07T00:04:48.487Z,75
2022-09-07T00:05:11.410Z,75
2022-09-07T00:05:44.831Z,75
2022-09-07T00:06:16.711Z,75
2022-09-07T00:06:48.935Z,75
2022-09-07T00:07:20.948Z,75
2022-09-07T00:07:52.723Z,75
2022-09-07T00:08:26.389Z,75
2022-09-07T00:08:47.403Z,75
2022-09-07T00:09:09.813Z,75
2022-09-07T00:09:44.863Z,75
2022-09-07T00:10:16.841Z,75
2022-09-07T00:10:48.700Z,75
2022-09-07T00:11:20.844Z,75
2022-09-07T00:11:52.784Z,75
2022-09-07T00:12:27.355Z,75
2022-09-07T00:12:47.763Z,74
2022-09-07T00:13:10.299Z,74
2022-09-07T00:13:44.854Z,74
2022-09-07T00:14:17.054Z,74
2022-09-07T00:14:48.905Z,74
2022-09-07T00:15:20.868Z,74
2022-09-07T00:15:53.011Z,74
2022-09-07T00:16:19.301Z,74
2022-09-07T00:16:53.001Z,74
2022-09-07T00:17:29.238Z,74
2022-09-07T00:17:51.693Z,74
2022-09-07T00:18:14.211Z,74
2022-09-07T00:18:49.626Z,74
2022-09-07T00:19:20.759Z,74
2022-09-07T00:19:52.823Z,74
2022-09-07T00:20:24.963Z,74
2022-09-07T00:20:47.649Z,74
2022-09-07T00:21:10.732Z,73
2022-09-07T00:21:44.934Z,73
2022-09-07T00:22:16.831Z,73
2022-09-07T00:22:48.831Z,73
2022-09-07T00:23:20.898Z,73
2022-09-07T00:23:52.838Z,73
2022-09-07T00:24:24.807Z,73
2022-09-07T00:24:47.479Z,73
2022-09-07T00:25:09.807Z,73
2022-09-07T00:25:45.003Z,72
2022-09-07T00:26:17.436Z,72
2022-09-07T00:26:50.355Z,72
2022-09-07T00:27:20.708Z,72
2022-09-07T00:27:53.434Z,72
2022-09-07T00:28:25.366Z,72
2022-09-07T00:28:47.914Z,72
2022-09-07T00:29:10.607Z,72
2022-09-07T00:29:44.873Z,72
2022-09-07T00:30:17.166Z,72
2022-09-07T00:30:49.030Z,72
2022-09-07T00:31:20.947Z,72
2022-09-07T00:31:58.811Z,72
2022-09-07T00:32:21.284Z,72
2022-09-07T00:32:52.945Z,72
2022-09-07T00:33:29.775Z,72
2022-09-07T00:33:53.295Z,72
2022-09-07T00:34:15.839Z,72
2022-09-07T00:34:48.804Z,72
2022-09-07T00:35:20.908Z,72
2022-09-07T00:35:52.786Z,72
2022-09-07T00:36:24.660Z,73
2022-09-07T00:36:47.456Z,73
2022-09-07T00:37:09.807Z,73
2022-09-07T00:37:44.837Z,73
2022-09-07T00:38:16.810Z,73
2022-09-07T00:38:48.764Z,73
2022-09-07T00:39:20.778Z,73
2022-09-07T00:39:52.879Z,73
2022-09-07T00:40:24.699Z,73
2022-09-07T00:40:47.645Z,73
2022-09-07T00:41:09.946Z,73
2022-09-07T00:41:45.006Z,73
2022-09-07T00:42:16.796Z,73
2022-09-07T00:42:48.712Z,73
2022-09-07T00:43:20.930Z,73
2022-09-07T00:43:52.662Z,73
2022-09-07T00:44:24.929Z,73
2022-09-07T00:44:47.560Z,73
2022-09-07T00:45:09.953Z,73
2022-09-07T00:45:44.851Z,73
2022-09-07T00:46:16.763Z,73
2022-09-07T00:46:48.920Z,73
2022-09-07T00:47:20.691Z,73
2022-09-07T00:47:52.826Z,73
2022-09-07T00:48:24.842Z,74
2022-09-07T00:48:47.950Z,74
2022-09-07T00:49:10.398Z,73
2022-09-07T00:49:44.785Z,73
2022-09-07T00:50:16.659Z,73
2022-09-07T00:50:48.855Z,73
2022-09-07T00:51:20.774Z,73
2022-09-07T00:51:53.106Z,73
2022-09-07T00:52:24.706Z,73
2022-09-07T00:52:48.619Z,73
2022-09-07T00:53:14.285Z,73
2022-09-07T00:53:44.777Z,73
2022-09-07T00:54:16.814Z,73
2022-09-07T00:54:48.678Z,73
2022-09-07T00:55:20.761Z,73
2022-09-07T00:55:52.826Z,73
2022-09-07T00:56:24.794Z,73
2022-09-07T00:56:48.787Z,73
2022-09-07T00:57:10.998Z,73
2022-09-07T00:57:44.738Z,74
2022-09-07T00:58:16.708Z,74
2022-09-07T00:58:48.678Z,74
2022-09-07T00:59:20.755Z,73
2022-09-07T00:59:52.678Z,73
2022-09-07T01:00:25.066Z,73
2022-09-07T01:00:47.540Z,74
2022-09-07T01:01:09.891Z,74
2022-09-07T01:01:44.754Z,74
2022-09-07T01:02:16.862Z,74
2022-09-07T01:02:50.535Z,74
2022-09-07T01:03:20.896Z,74
2022-09-07T01:03:52.863Z,74
2022-09-07T01:04:24.740Z,74
2022-09-07T01:04:47.665Z,74
2022-09-07T01:05:10.029Z,74
2022-09-07T01:05:44.677Z,73
2022-09-07T01:06:16.782Z,73
2022-09-07T01:06:49.245Z,73
2022-09-07T01:07:20.670Z,73
2022-09-07T01:07:52.761Z,72
2022-09-07T01:08:24.669Z,70
2022-09-07T01:08:47.417Z,69
2022-09-07T01:09:09.768Z,67
2022-09-07T01:09:44.793Z,67
2022-09-07T01:10:16.679Z,67
2022-09-07T01:10:48.700Z,67
2022-09-07T01:11:20.829Z,67
2022-09-07T01:11:52.824Z,67
2022-09-07T01:12:24.655Z,67
2022-09-07T01:12:47.454Z,67
2022-09-07T01:13:09.883Z,67
2022-09-07T01:13:45.006Z,67
2022-09-07T01:14:17.217Z,68
2022-09-07T01:14:49.133Z,68
2022-09-07T01:15:21.443Z,69
2022-09-07T01:15:52.804Z,70
2022-09-07T01:16:24.836Z,71
2022-09-07T01:16:47.508Z,71
2022-09-07T01:17:09.877Z,72
2022-09-07T01:17:46.191Z,73
2022-09-07T01:18:16.938Z,74
2022-09-07T01:18:49.014Z,74
2022-09-07T01:19:20.700Z,75
2022-09-07T01:19:52.838Z,76
2022-09-07T01:20:24.755Z,77
2022-09-07T01:20:47.372Z,77
2022-09-07T01:21:09.745Z,78
2022-09-07T01:21:44.971Z,79
2022-09-07T01:22:18.532Z,79
2022-09-07T01:22:48.841Z,80
2022-09-07T01:23:21.484Z,80
2022-09-07T01:23:53.409Z,81
2022-09-07T01:24:25.504Z,82
2022-09-07T01:24:48.128Z,82
2022-09-07T01:25:10.514Z,83
2022-09-07T01:25:44.806Z,83
2022-09-07T01:26:16.851Z,84
2022-09-07T01:26:48.760Z,84
2022-09-07T01:27:20.961Z,84
2022-09-07T01:27:53.503Z,84
2022-09-07T01:28:24.673Z,85
2022-09-07T01:28:47.488Z,85
2022-09-07T01:29:09.980Z,85
2022-09-07T01:29:44.753Z,85
2022-09-07T01:30:17.249Z,86
2022-09-07T01:30:49.199Z,86
2022-09-07T01:31:22.642Z,86
2022-09-07T01:31:52.689Z,86
2022-09-07T01:32:24.867Z,86
2022-09-07T01:32:47.613Z,85
2022-09-07T01:33:09.850Z,85
2022-09-07T01:33:44.939Z,86
2022-09-07T01:34:16.853Z,86
2022-09-07T01:34:48.874Z,86
2022-09-07T01:35:21.336Z,86
2022-09-07T01:35:52.829Z,86
2022-09-07T01:36:24.821Z,86
2022-09-07T01:36:47.628Z,86
2022-09-07T01:37:10.737Z,86
2022-09-07T01:37:44.952Z,86
2022-09-07T01:38:19.110Z,86
2022-09-07T01:38:48.961Z,86
2022-09-07T01:39:21.491Z,86
2022-09-07T01:39:52.826Z,86
2022-09-07T01:40:24.726Z,86
2022-09-07T01:40:47.501Z,86
2022-09-07T01:41:09.889Z,86
2022-09-07T01:41:45.114Z,86
2022-09-07T01:42:16.776Z,86
2022-09-07T01:42:48.709Z,86
2022-09-07T01:43:20.778Z,86
2022-09-07T01:43:54.618Z,85
2022-09-07T01:44:24.927Z,85
2022-09-07T01:44:47.857Z,85
2022-09-07T01:45:10.610Z,85
2022-09-07T01:45:45.162Z,85
2022-09-07T01:46:17.117Z,85
2022-09-07T01:46:49.376Z,85
2022-09-07T01:47:23.625Z,85
2022-09-07T01:47:58.815Z,85
2022-09-07T01:48:21.511Z,85
2022-09-07T01:48:52.766Z,85
2022-09-07T01:49:28.913Z,85
2022-09-07T01:49:51.878Z,85
2022-09-07T01:50:14.125Z,85
2022-09-07T01:50:48.557Z,85
2022-09-07T01:51:20.666Z,85
2022-09-07T01:51:52.743Z,85
2022-09-07T01:52:24.691Z,85
2022-09-07T01:52:47.375Z,85
2022-09-07T01:53:09.792Z,85
2022-09-07T01:53:44.697Z,85
2022-09-07T01:54:16.598Z,85
2022-09-07T01:54:48.706Z,85
2022-09-07T01:55:20.809Z,84
2022-09-07T01:55:52.850Z,84
2022-09-07T01:56:24.699Z,84
2022-09-07T01:56:47.574Z,84
2022-09-07T01:57:09.894Z,84
2022-09-07T01:57:44.653Z,84
2022-09-07T01:58:16.767Z,84
2022-09-07T01:58:48.830Z,84
2022-09-07T01:59:20.571Z,84
2022-09-07T01:59:52.834Z,84
2022-09-07T02:00:24.727Z,84
2022-09-07T02:00:47.323Z,84
2022-09-07T02:01:09.746Z,84
2022-09-07T02:01:44.675Z,84
2022-09-07T02:02:17.127Z,84
2022-09-07T02:02:54.116Z,84
2022-09-07T02:03:20.693Z,84
2022-09-07T02:03:52.942Z,84
2022-09-07T02:04:24.755Z,84
2022-09-07T02:04:47.788Z,84
2022-09-07T02:05:10.063Z,84
2022-09-07T02:05:44.617Z,84
2022-09-07T02:06:16.614Z,84
2022-09-07T02:06:50.086Z,84
2022-09-07T02:07:20.593Z,84
2022-09-07T02:07:52.596Z,84
2022-09-07T02:08:24.557Z,84
2022-09-07T02:08:47.394Z,84
2022-09-07T02:09:09.735Z,84
2022-09-07T02:09:44.786Z,84
2022-09-07T02:10:16.701Z,84
2022-09-07T02:10:49.178Z,84
2022-09-07T02:11:20.743Z,84
2022-09-07T02:11:53.173Z,85
2022-09-07T02:12:24.661Z,85
2022-09-07T02:12:47.582Z,84
2022-09-07T02:13:10.225Z,84
2022-09-07T02:13:44.710Z,85
2022-09-07T02:14:16.702Z,85
2022-09-07T02:14:52.354Z,85
2022-09-07T02:15:21.127Z,85
2022-09-07T02:15:52.759Z,85
2022-09-07T02:16:24.676Z,85
2022-09-07T02:16:47.514Z,85
2022-09-07T02:17:09.757Z,85
2022-09-07T02:17:44.776Z,85
2022-09-07T02:18:16.684Z,85
2022-09-07T02:18:48.673Z,85
2022-09-07T02:19:20.666Z,85
2022-09-07T02:19:52.629Z,85
2022-09-07T02:20:25.090Z,85
2022-09-07T02:20:48.027Z,85
2022-09-07T02:21:10.244Z,85
2022-09-07T02:21:44.700Z,85
2022-09-07T02:22:16.762Z,85
2022-09-07T02:22:48.552Z,85
2022-09-07T02:23:20.564Z,85
2022-09-07T02:23:52.716Z,85
2022-09-07T02:24:24.550Z,85
2022-09-07T02:24:47.203Z,85
2022-09-07T02:25:09.591Z,86
2022-09-07T02:25:44.718Z,86
2022-09-07T02:26:16.615Z,86
2022-09-07T02:26:48.600Z,86
2022-09-07T02:27:20.572Z,86
2022-09-07T02:27:52.729Z,86
2022-09-07T02:28:24.888Z,86
2022-09-07T02:28:47.809Z,86
2022-09-07T02:29:10.124Z,86
2022-09-07T02:29:46.201Z,86
2022-09-07T02:30:16.831Z,86
2022-09-07T02:30:48.651Z,86
2022-09-07T02:31:20.749Z,86
2022-09-07T02:31:52.739Z,86
2022-09-07T02:32:24.816Z,86
2022-09-07T02:32:47.372Z,86
2022-09-07T02:33:09.737Z,86
2022-09-07T02:33:45.092Z,86
2022-09-07T02:34:16.930Z,86
2022-09-07T02:34:48.578Z,86
2022-09-07T02:35:20.763Z,86
2022-09-07T02:35:52.513Z,86
2022-09-07T02:36:24.692Z,86
2022-09-07T02:36:47.585Z,86
2022-09-07T02:37:09.929Z,86
2022-09-07T02:37:45.659Z,86
2022-09-07T02:38:16.714Z,86
2022-09-07T02:38:48.866Z,86
2022-09-07T02:39:20.713Z,86
2022-09-07T02:39:52.804Z,86
2022-09-07T02:40:24.816Z,86
2022-09-07T02:40:47.291Z,86
2022-09-07T02:41:09.639Z,86
2022-09-07T02:41:46.545Z,86
2022-09-07T02:42:16.657Z,86
2022-09-07T02:42:48.555Z,86
2022-09-07T02:43:20.574Z,86
2022-09-07T02:43:52.717Z,87
2022-09-07T02:44:24.613Z,87
2022-09-07T02:44:47.430Z,86
2022-09-07T02:45:09.826Z,86
2022-09-07T02:45:47.048Z,86
2022-09-07T02:46:16.625Z,86
2022-09-07T02:46:48.619Z,86
2022-09-07T02:47:20.681Z,86
2022-09-07T02:47:52.634Z,86
2022-09-07T02:48:24.684Z,86
2022-09-07T02:48:47.406Z,86
2022-09-07T02:49:09.891Z,86
2022-09-07T02:49:44.668Z,86
2022-09-07T02:50:17.231Z,86
2022-09-07T02:50:50.107Z,86
2022-09-07T02:51:20.710Z,87
2022-09-07T02:51:52.578Z,87
2022-09-07T02:52:24.565Z,87
2022-09-07T02:52:48.400Z,87
2022-09-07T02:53:10.645Z,87
2022-09-07T02:53:44.541Z,87
2022-09-07T02:54:16.691Z,87
2022-09-07T02:54:48.621Z,87
2022-09-07T02:55:20.501Z,87
2022-09-07T02:55:53.009Z,87
2022-09-07T02:56:24.698Z,87
2022-09-07T02:56:53.644Z,87
2022-09-07T02:57:10.326Z,87
2022-09-07T02:57:44.547Z,87
2022-09-07T02:58:16.682Z,88
2022-09-07T02:58:48.568Z,88
2022-09-07T02:59:20.613Z,88
2022-09-07T02:59:52.944Z,88
2022-09-07T03:00:24.604Z,88
2022-09-07T03:00:48.705Z,88
2022-09-07T03:01:10.643Z,88
2022-09-07T03:01:44.812Z,88
2022-09-07T03:02:17.108Z,89
2022-09-07T03:02:50.789Z,89
2022-09-07T03:03:20.585Z,89
2022-09-07T03:03:52.650Z,89
2022-09-07T03:04:24.626Z,89
2022-09-07T03:04:49.586Z,89
2022-09-07T03:05:09.649Z,89
2022-09-07T03:05:44.747Z,90
2022-09-07T03:06:16.643Z,90
2022-09-07T03:06:49.823Z,90
2022-09-07T03:07:20.681Z,90
2022-09-07T03:07:52.707Z,90
2022-09-07T03:08:24.635Z,90
2022-09-07T03:08:50.040Z,90
2022-09-07T03:09:10.914Z,90
2022-09-07T03:09:44.488Z,90
2022-09-07T03:10:16.681Z,90
2022-09-07T03:10:50.091Z,90
2022-09-07T03:11:20.736Z,91
2022-09-07T03:11:52.847Z,91
2022-09-07T03:12:24.707Z,91
2022-09-07T03:12:47.282Z,91
2022-09-07T03:13:15.155Z,91
2022-09-07T03:13:44.716Z,91
2022-09-07T03:14:16.606Z,91
2022-09-07T03:14:50.725Z,91
2022-09-07T03:15:20.582Z,91
2022-09-07T03:15:55.956Z,91
2022-09-07T03:16:24.799Z,91
2022-09-07T03:16:47.518Z,91
2022-09-07T03:17:09.803Z,91
2022-09-07T03:17:44.826Z,92
2022-09-07T03:18:16.599Z,92
2022-09-07T03:18:48.462Z,92
2022-09-07T03:19:20.578Z,92
2022-09-07T03:19:52.565Z,92
2022-09-07T03:20:24.548Z,92
2022-09-07T03:20:47.236Z,92
2022-09-07T03:21:09.663Z,92
2022-09-07T03:21:44.659Z,92
2022-09-07T03:22:16.710Z,92
2022-09-07T03:22:48.534Z,92
2022-09-07T03:23:20.641Z,92
2022-09-07T03:23:52.674Z,92
2022-09-07T03:24:24.991Z,92
2022-09-07T03:24:47.994Z,92
2022-09-07T03:25:10.485Z,92
2022-09-07T03:25:44.606Z,92
2022-09-07T03:26:16.634Z,92
2022-09-07T03:26:48.618Z,93
2022-09-07T03:27:20.645Z,93
2022-09-07T03:27:52.646Z,93
2022-09-07T03:28:24.611Z,93
2022-09-07T03:28:47.488Z,93
2022-09-07T03:29:10.083Z,93
2022-09-07T03:29:44.633Z,93
2022-09-07T03:30:16.650Z,93
2022-09-07T03:30:48.800Z,93
2022-09-07T03:31:20.679Z,93
2022-09-07T03:31:53.053Z,93
2022-09-07T03:32:24.658Z,93
2022-09-07T03:32:47.554Z,93
2022-09-07T03:33:09.862Z,93
2022-09-07T03:33:44.737Z,93
2022-09-07T03:34:16.745Z,93
2022-09-07T03:34:48.715Z,93
2022-09-07T03:35:20.447Z,93
2022-09-07T03:35:53.528Z,93
2022-09-07T03:36:24.555Z,93
2022-09-07T03:36:47.423Z,93
2022-09-07T03:37:09.770Z,93
2022-09-07T03:37:44.486Z,93
2022-09-07T03:38:16.732Z,94
2022-09-07T03:38:48.440Z,94
2022-09-07T03:39:20.566Z,94
2022-09-07T03:39:54.168Z,94
2022-09-07T03:40:24.571Z,94
2022-09-07T03:40:48.012Z,94
2022-09-07T03:41:10.417Z,94
2022-09-07T03:41:44.658Z,94
2022-09-07T03:42:16.614Z,94
2022-09-07T03:42:48.862Z,94
2022-09-07T03:43:20.742Z,94
2022-09-07T03:43:54.610Z,94
2022-09-07T03:44:24.567Z,94
2022-09-07T03:44:47.207Z,94
2022-09-07T03:45:09.809Z,94
2022-09-07T03:45:44.732Z,94
2022-09-07T03:46:16.756Z,94
2022-09-07T03:46:48.633Z,94
2022-09-07T03:47:20.446Z,94
2022-09-07T03:47:54.857Z,94
2022-09-07T03:48:24.568Z,94
2022-09-07T03:48:47.331Z,94
2022-09-07T03:49:09.894Z,94
2022-09-07T03:49:44.656Z,94
2022-09-07T03:50:16.720Z,94
2022-09-07T03:50:48.548Z,94
2022-09-07T03:51:20.748Z,94
2022-09-07T03:51:52.551Z,94
2022-09-07T03:52:24.511Z,94
2022-09-07T03:52:47.586Z,94
2022-09-07T03:53:09.897Z,94
2022-09-07T03:53:44.532Z,94
2022-09-07T03:54:17.038Z,94
2022-09-07T03:54:48.472Z,94
2022-09-07T03:55:20.533Z,95
2022-09-07T03:55:52.502Z,95
2022-09-07T03:56:24.548Z,95
2022-09-07T03:56:48.430Z,95
2022-09-07T03:57:10.897Z,95
2022-09-07T03:57:44.686Z,95
2022-09-07T03:58:16.653Z,95
2022-09-07T03:58:48.550Z,95
2022-09-07T03:59:20.433Z,95
2022-09-07T03:59:52.562Z,95
2022-09-07T04:00:25.101Z,95
2022-09-07T04:00:47.612Z,95
2022-09-07T04:01:10.102Z,95
2022-09-07T04:01:44.511Z,95
2022-09-07T04:02:16.616Z,95
2022-09-07T04:02:55.301Z,95
2022-09-07T04:03:20.541Z,95
2022-09-07T04:03:53.075Z,95
2022-09-07T04:04:24.701Z,95
2022-09-07T04:04:47.807Z,95
2022-09-07T04:05:10.000Z,95
2022-09-07T04:05:44.525Z,95
2022-09-07T04:06:16.830Z,95
2022-09-07T04:06:48.811Z,95
2022-09-07T04:07:20.425Z,95
2022-09-07T04:07:52.526Z,95
2022-09-07T04:08:24.515Z,95
2022-09-07T04:08:47.314Z,95
2022-09-07T04:09:09.716Z,95
2022-09-07T04:09:44.486Z,95
2022-09-07T04:10:16.657Z,95
2022-09-07T04:10:48.513Z,95
2022-09-07T04:11:20.644Z,95
2022-09-07T04:11:52.538Z,95
2022-09-07T04:12:24.526Z,95
2022-09-07T04:12:47.317Z,95
2022-09-07T04:13:09.676Z,95
2022-09-07T04:13:44.673Z,95
2022-09-07T04:14:16.800Z,95
2022-09-07T04:14:48.589Z,95
2022-09-07T04:15:20.610Z,95
2022-09-07T04:15:54.013Z,95
2022-09-07T04:16:24.549Z,95
2022-09-07T04:16:47.500Z,95
2022-09-07T04:17:09.859Z,95
2022-09-07T04:17:44.630Z,95
2022-09-07T04:18:16.478Z,95
2022-09-07T04:18:48.527Z,95
2022-09-07T04:19:20.422Z,95
2022-09-07T04:19:52.516Z,95
2022-09-07T04:20:24.494Z,95
2022-09-07T04:20:47.346Z,95
2022-09-07T04:21:09.627Z,95
2022-09-07T04:21:44.631Z,95
2022-09-07T04:22:16.472Z,95
2022-09-07T04:22:53.667Z,95
2022-09-07T04:23:20.439Z,95
2022-09-07T04:23:52.872Z,95
2022-09-07T04:24:24.469Z,95
2022-09-07T04:24:47.162Z,95
2022-09-07T04:25:09.496Z,95
2022-09-07T04:25:44.537Z,95
2022-09-07T04:26:16.561Z,95
2022-09-07T04:26:48.495Z,95
2022-09-07T04:27:20.518Z,95
2022-09-07T04:27:53.978Z,95
2022-09-07T04:28:24.521Z,95
2022-09-07T04:28:47.254Z,95
2022-09-07T04:29:09.651Z,95
2022-09-07T04:29:44.450Z,95
2022-09-07T04:30:16.709Z,95
2022-09-07T04:30:48.490Z,95
2022-09-07T04:31:20.492Z,95
2022-09-07T04:31:52.704Z,95
2022-09-07T04:32:24.546Z,95
2022-09-07T04:32:47.161Z,95
2022-09-07T04:33:09.583Z,95
2022-09-07T04:33:44.559Z,95
2022-09-07T04:34:16.645Z,95
2022-09-07T04:34:48.653Z,95
2022-09-07T04:35:21.045Z,95
2022-09-07T04:35:52.560Z,95
2022-09-07T04:36:24.406Z,95
2022-09-07T04:36:47.441Z,95
2022-09-07T04:37:09.599Z,95
2022-09-07T04:37:44.522Z,95
2022-09-07T04:38:16.591Z,95
2022-09-07T04:38:48.555Z,95
2022-09-07T04:39:20.458Z,95
2022-09-07T04:39:52.563Z,95
2022-09-07T04:40:24.571Z,95
2022-09-07T04:40:47.278Z,95
2022-09-07T04:41:09.649Z,95
2022-09-07T04:41:45.928Z,95
2022-09-07T04:42:16.589Z,95
2022-09-07T04:42:48.915Z,95
2022-09-07T04:43:20.628Z,95
2022-09-07T04:43:52.527Z,95
2022-09-07T04:44:24.558Z,95
2022-09-07T04:44:47.477Z,95
2022-09-07T04:45:09.804Z,95
2022-09-07T04:45:44.581Z,95
2022-09-07T04:46:16.578Z,95
2022-09-07T04:46:48.553Z,95
2022-09-07T04:47:20.591Z,95
2022-09-07T04:47:52.496Z,95
2022-09-07T04:48:24.647Z,95
2022-09-07T04:48:47.285Z,95
2022-09-07T04:49:10.044Z,95
2022-09-07T04:49:44.815Z,95
2022-09-07T04:50:16.536Z,95
2022-09-07T04:50:48.606Z,95
2022-09-07T04:51:20.520Z,95
2022-09-07T04:51:52.572Z,95
2022-09-07T04:52:24.953Z,95
2022-09-07T04:52:47.353Z,95
2022-09-07T04:53:09.652Z,95
2022-09-07T04:53:44.623Z,95
2022-09-07T04:54:16.414Z,95
2022-09-07T04:54:48.686Z,95
2022-09-07T04:55:20.881Z,95
2022-09-07T04:55:52.795Z,95
2022-09-07T04:56:24.574Z,95
2022-09-07T04:56:47.530Z,95
2022-09-07T04:57:09.800Z,95
2022-09-07T04:57:44.544Z,95
2022-09-07T04:58:16.789Z,95
2022-09-07T04:58:48.496Z,95
2022-09-07T04:59:20.952Z,95
2022-09-07T04:59:52.479Z,95
2022-09-07T05:00:24.849Z,95
2022-09-07T05:00:48.445Z,95
2022-09-07T05:01:10.757Z,95
2022-09-07T05:01:44.693Z,95
2022-09-07T05:02:16.719Z,95
2022-09-07T05:02:53.939Z,95
2022-09-07T05:03:20.739Z,95
2022-09-07T05:03:52.703Z,95
2022-09-07T05:04:24.762Z,95
2022-09-07T05:04:47.771Z,95
2022-09-07T05:05:09.775Z,95
2022-09-07T05:05:44.848Z,95
2022-09-07T05:06:17.022Z,95
2022-09-07T05:06:48.938Z,95
2022-09-07T05:07:20.586Z,95
2022-09-07T05:07:52.856Z,95
2022-09-07T05:08:24.888Z,95
2022-09-07T05:08:47.596Z,95
2022-09-07T05:09:11.461Z,95
2022-09-07T05:09:44.673Z,95
2022-09-07T05:10:16.745Z,95
2022-09-07T05:10:48.741Z,95
2022-09-07T05:11:24.927Z,95
2022-09-07T05:11:52.595Z,95
2022-09-07T05:12:24.582Z,95
2022-09-07T05:12:47.343Z,95
2022-09-07T05:13:09.942Z,95
2022-09-07T05:13:44.674Z,95
2022-09-07T05:14:16.893Z,95
2022-09-07T05:14:48.560Z,95
2022-09-07T05:15:21.130Z,95
2022-09-07T05:15:52.591Z,95
2022-09-07T05:16:24.836Z,95
2022-09-07T05:16:48.455Z,95
2022-09-07T05:17:10.935Z,95
2022-09-07T05:17:44.527Z,95
2022-09-07T05:18:16.563Z,95
2022-09-07T05:18:49.094Z,95
2022-09-07T05:19:20.560Z,95
2022-09-07T05:19:52.420Z,95
2022-09-07T05:20:24.665Z,95
2022-09-07T05:20:47.266Z,95
2022-09-07T05:21:09.946Z,95
2022-09-07T05:21:44.550Z,95
2022-09-07T05:22:16.444Z,95
2022-09-07T05:22:48.602Z,95
2022-09-07T05:23:20.436Z,95
2022-09-07T05:23:52.582Z,95
2022-09-07T05:24:24.516Z,95
2022-09-07T05:24:47.829Z,95
2022-09-07T05:25:10.151Z,95
2022-09-07T05:25:45.975Z,95
2022-09-07T05:26:16.551Z,95
2022-09-07T05:26:48.648Z,95
2022-09-07T05:27:20.552Z,95
2022-09-07T05:27:55.113Z,95
2022-09-07T05:28:24.491Z,95
2022-09-07T05:28:47.548Z,95
2022-09-07T05:31:17.570Z,95
2022-09-07T05:31:20.767Z,95
2022-09-07T05:31:52.415Z,95
2022-09-07T05:32:24.617Z,95
2022-09-07T05:32:47.838Z,95
2022-09-07T05:33:11.237Z,95
2022-09-07T05:34:32.555Z,95
2022-09-07T05:34:50.961Z,95
2022-09-07T05:35:20.676Z,95
2022-09-07T05:35:52.653Z,95
2022-09-07T05:36:24.485Z,95
2022-09-07T05:36:47.174Z,95
2022-09-07T05:37:11.631Z,95
2022-09-07T05:37:44.600Z,95
2022-09-07T05:38:16.574Z,95
2022-09-07T05:38:48.685Z,95
2022-09-07T05:39:20.419Z,95
2022-09-07T05:39:52.756Z,95
2022-09-07T05:40:24.418Z,95
2022-09-07T05:40:47.183Z,95
2022-09-07T05:41:12.230Z,95
2022-09-07T05:41:44.643Z,95
2022-09-07T05:42:16.614Z,95
2022-09-07T05:42:48.553Z,95
2022-09-07T05:43:20.457Z,95
2022-09-07T05:44:46.266Z,95
2022-09-07T05:44:48.283Z,95
2022-09-07T05:45:13.063Z,95
2022-09-07T05:45:44.537Z,95
2022-09-07T05:46:16.738Z,95
2022-09-07T05:46:48.450Z,95
2022-09-07T05:47:20.617Z,95
2022-09-07T05:47:52.444Z,95
2022-09-07T05:48:24.604Z,95
2022-09-07T05:48:47.534Z,95
2022-09-07T05:49:09.866Z,95
2022-09-07T05:49:44.668Z,95
2022-09-07T05:50:16.515Z,95
2022-09-07T05:50:48.652Z,95
2022-09-07T05:51:20.489Z,95
2022-09-07T05:51:52.526Z,95
2022-09-07T05:52:24.415Z,95
2022-09-07T05:52:47.416Z,95
2022-09-07T05:53:09.757Z,95
2022-09-07T05:53:44.498Z,95
2022-09-07T05:54:16.788Z,95
2022-09-07T05:54:48.536Z,95
2022-09-07T05:55:29.794Z,95
2022-09-07T05:55:52.806Z,95
2022-09-07T05:56:24.744Z,95
2022-09-07T05:56:47.494Z,95
2022-09-07T05:57:09.682Z,95
2022-09-07T05:57:46.014Z,96
2022-09-07T05:58:16.526Z,95
2022-09-07T05:58:48.553Z,96
2022-09-07T05:59:20.413Z,96
2022-09-07T05:59:52.496Z,96
2022-09-07T06:00:24.497Z,96
2022-09-07T06:00:47.478Z,96
2022-09-07T06:01:09.762Z,96
2022-09-07T06:01:44.706Z,96
2022-09-07T06:02:16.723Z,96
2022-09-07T06:02:54.096Z,96
2022-09-07T06:03:20.941Z,96
2022-09-07T06:03:53.909Z,96
2022-09-07T06:04:24.975Z,96
2022-09-07T06:04:47.874Z,96
2022-09-07T06:05:10.173Z,96
2022-09-07T06:05:47.069Z,96
2022-09-07T06:06:16.786Z,96
2022-09-07T06:07:17.670Z,96
2022-09-07T06:07:36.427Z,96
2022-09-07T06:07:59.892Z,96
2022-09-07T06:08:22.123Z,96
2022-09-07T06:08:53.023Z,96
2022-09-07T06:09:30.678Z,96
2022-09-07T06:10:46.009Z,96
2022-09-07T06:10:55.608Z,96
2022-09-07T06:11:18.058Z,96
2022-09-07T06:11:52.652Z,96
2022-09-07T06:12:20.123Z,96
2022-09-07T06:12:54.331Z,96
2022-09-07T06:13:28.806Z,96
2022-09-07T06:13:51.234Z,96
2022-09-07T06:14:13.991Z,96
2022-09-07T06:14:48.610Z,96
2022-09-07T06:15:21.321Z,96
2022-09-07T06:15:52.759Z,96
2022-09-07T06:16:25.735Z,95
2022-09-07T06:16:48.217Z,95
2022-09-07T06:17:10.645Z,95
2022-09-07T06:17:44.930Z,95
2022-09-07T06:18:18.532Z,95
2022-09-07T06:18:49.112Z,96
2022-09-07T06:19:21.344Z,96
2022-09-07T06:19:53.276Z,95
2022-09-07T06:20:24.520Z,95
2022-09-07T06:20:47.226Z,95
2022-09-07T06:21:09.936Z,95
2022-09-07T06:21:44.557Z,95
2022-09-07T06:22:19.564Z,95
2022-09-07T06:22:48.802Z,95
2022-09-07T06:23:20.636Z,95
2022-09-07T06:23:52.633Z,95
2022-09-07T06:24:24.700Z,95
2022-09-07T06:24:47.460Z,95
2022-09-07T06:25:09.738Z,95
2022-09-07T06:25:44.521Z,95
2022-09-07T06:26:16.874Z,95
2022-09-07T06:26:48.625Z,95
2022-09-07T06:27:21.054Z,94
2022-09-07T06:27:54.076Z,94
2022-09-07T06:28:24.981Z,94
2022-09-07T06:28:49.681Z,94
2022-09-07T06:29:09.934Z,94
2022-09-07T06:29:44.551Z,94
2022-09-07T06:30:16.580Z,94
2022-09-07T06:30:48.540Z,94
2022-09-07T06:31:21.001Z,94
2022-09-07T06:32:45.224Z,94
2022-09-07T06:32:48.310Z,94
2022-09-07T06:33:10.755Z,94
2022-09-07T06:33:44.457Z,94
2022-09-07T06:34:17.363Z,94
2022-09-07T06:34:48.624Z,93
2022-09-07T06:35:21.379Z,93
2022-09-07T06:35:54.131Z,93
2022-09-07T06:36:24.756Z,93
2022-09-07T06:36:47.459Z,93
2022-09-07T06:37:11.420Z,93
2022-09-07T06:37:45.793Z,93
2022-09-07T06:38:16.699Z,93
2022-09-07T06:38:48.845Z,93
2022-09-07T06:39:22.046Z,93
2022-09-07T06:39:52.629Z,93
2022-09-07T06:40:24.732Z,92
2022-09-07T06:40:47.635Z,92
2022-09-07T06:42:00.921Z,92
2022-09-07T06:42:16.603Z,92
2022-09-07T06:42:48.698Z,92
2022-09-07T06:43:22.755Z,92
2022-09-07T06:43:53.259Z,91
2022-09-07T06:44:24.347Z,91
2022-09-07T06:44:47.069Z,91
2022-09-07T06:45:10.294Z,91
2022-09-07T06:45:44.734Z,91
2022-09-07T06:47:04.893Z,91
2022-09-07T06:47:23.392Z,91
2022-09-07T06:47:52.691Z,91
2022-09-07T06:48:25.017Z,91
2022-09-07T06:48:47.758Z,91
2022-09-07T06:49:10.111Z,91
2022-09-07T06:49:45.325Z,90
2022-09-07T06:50:16.923Z,90
2022-09-07T06:50:49.187Z,90
2022-09-07T06:51:20.691Z,90
2022-09-07T06:51:56.752Z,90
2022-09-07T06:52:19.244Z,90
2022-09-07T06:53:36.812Z,90
2022-09-07T06:53:52.536Z,90
2022-09-07T06:55:01.508Z,89
2022-09-07T06:55:20.639Z,89
2022-09-07T06:55:52.591Z,89
2022-09-07T06:56:24.950Z,89
2022-09-07T06:56:47.374Z,89
2022-09-07T06:57:09.851Z,88
2022-09-07T06:57:44.606Z,88
2022-09-07T06:58:12.477Z,88
2022-09-07T06:58:49.184Z,87
2022-09-07T06:59:20.503Z,87
2022-09-07T06:59:52.579Z,87
2022-09-07T07:00:25.947Z,87
2022-09-07T07:00:48.533Z,87
2022-09-07T07:01:11.570Z,87
2022-09-07T07:01:45.091Z,88
2022-09-07T07:02:16.476Z,88
2022-09-07T07:02:54.473Z,88
2022-09-07T07:03:22.055Z,88
2022-09-07T07:04:26.260Z,88
2022-09-07T07:04:47.124Z,88
2022-09-07T07:05:09.885Z,88
2022-09-07T07:05:44.617Z,88
2022-09-07T07:06:16.559Z,88
2022-09-07T07:06:49.995Z,88
2022-09-07T07:07:20.917Z,88
2022-09-07T07:07:52.609Z,88
2022-09-07T07:08:26.992Z,88
2022-09-07T07:08:47.159Z,88
2022-09-07T07:09:09.723Z,88
2022-09-07T07:09:45.204Z,88
2022-09-07T07:10:19.755Z,89
2022-09-07T07:10:49.202Z,88
2022-09-07T07:11:20.743Z,88
2022-09-07T07:11:52.574Z,88
2022-09-07T07:12:47.537Z,88
2022-09-07T07:13:10.576Z,88
2022-09-07T07:13:44.626Z,88
2022-09-07T07:14:16.873Z,88